sensor_id;sensor_type;location;lat;lon;timestamp;pressure;altitude;pressure_sealevel;temperature;humidity
63903;BME280;50072;50.678;13.938;2023-01-28T00:01:39;100270.56;;;0.99;86.88
63903;BME280;50072;50.678;13.938;2023-01-28T00:04:07;100263.41;;;0.93;87.05
63903;BME280;50072;50.678;13.938;2023-01-28T00:06:38;100257.25;;;0.93;86.86
63903;BME280;50072;50.678;13.938;2023-01-28T00:09:05;100273.25;;;1.00;87.05
63903;BME280;50072;50.678;13.938;2023-01-28T00:11:36;100257.31;;;0.96;86.84
63903;BME280;50072;50.678;13.938;2023-01-28T00:14:10;100270.59;;;1.00;86.56
63903;BME280;50072;50.678;13.938;2023-01-28T00:16:38;100269.63;;;0.97;86.98
63903;BME280;50072;50.678;13.938;2023-01-28T00:19:07;100263.50;;;0.98;86.91
63903;BME280;50072;50.678;13.938;2023-01-28T00:21:38;100265.31;;;0.99;87.19
63903;BME280;50072;50.678;13.938;2023-01-28T00:24:10;100264.50;;;1.03;87.38
63903;BME280;50072;50.678;13.938;2023-01-28T00:26:37;100259.97;;;0.96;87.28
63903;BME280;50072;50.678;13.938;2023-01-28T00:29:09;100266.19;;;0.99;87.05
63903;BME280;50072;50.678;13.938;2023-01-28T00:31:41;100268.78;;;0.98;87.50
63903;BME280;50072;50.678;13.938;2023-01-28T00:34:08;100263.56;;;1.01;87.76
63903;BME280;50072;50.678;13.938;2023-01-28T00:36:38;100268.91;;;1.04;87.10
63903;BME280;50072;50.678;13.938;2023-01-28T00:39:10;100266.28;;;1.04;87.57
63903;BME280;50072;50.678;13.938;2023-01-28T00:41:38;100259.16;;;0.98;87.37
63903;BME280;50072;50.678;13.938;2023-01-28T00:44:10;100257.44;;;1.00;87.63
63903;BME280;50072;50.678;13.938;2023-01-28T00:46:39;100265.44;;;1.05;87.78
63903;BME280;50072;50.678;13.938;2023-01-28T00:49:08;100260.31;;;1.11;87.59
63903;BME280;50072;50.678;13.938;2023-01-28T00:51:40;100261.94;;;1.06;87.69
63903;BME280;50072;50.678;13.938;2023-01-28T00:54:11;100263.78;;;1.09;87.80
63903;BME280;50072;50.678;13.938;2023-01-28T00:56:38;100253.94;;;1.01;87.91
63903;BME280;50072;50.678;13.938;2023-01-28T00:59:05;100261.06;;;1.06;87.99
63903;BME280;50072;50.678;13.938;2023-01-28T01:01:39;100262.78;;;1.05;88.02
63903;BME280;50072;50.678;13.938;2023-01-28T01:04:10;100259.28;;;1.05;88.04
63903;BME280;50072;50.678;13.938;2023-01-28T01:06:39;100267.34;;;1.12;87.78
63903;BME280;50072;50.678;13.938;2023-01-28T01:09:11;100254.16;;;1.12;87.34
63903;BME280;50072;50.678;13.938;2023-01-28T01:11:38;100261.25;;;1.15;87.70
63903;BME280;50072;50.678;13.938;2023-01-28T01:14:09;100274.53;;;1.19;87.16
63903;BME280;50072;50.678;13.938;2023-01-28T01:16:40;100270.22;;;1.22;87.63
63903;BME280;50072;50.678;13.938;2023-01-28T01:19:08;100261.31;;;1.18;87.44
63903;BME280;50072;50.678;13.938;2023-01-28T01:21:38;100264.00;;;1.19;87.11
63903;BME280;50072;50.678;13.938;2023-01-28T01:24:10;100269.13;;;1.13;87.85
63903;BME280;50072;50.678;13.938;2023-01-28T01:26:38;100267.50;;;1.18;87.26
63903;BME280;50072;50.678;13.938;2023-01-28T01:29:08;100258.44;;;1.06;87.67
63903;BME280;50072;50.678;13.938;2023-01-28T01:31:35;100266.00;;;0.92;88.18
63903;BME280;50072;50.678;13.938;2023-01-28T01:34:08;100267.09;;;1.00;88.69
63903;BME280;50072;50.678;13.938;2023-01-28T01:36:38;100263.56;;;1.01;88.29
63903;BME280;50072;50.678;13.938;2023-01-28T01:39:04;100261.84;;;1.01;88.47
63903;BME280;50072;50.678;13.938;2023-01-28T01:41:31;100260.09;;;1.02;88.78
63903;BME280;50072;50.678;13.938;2023-01-28T01:52:56;100267.16;;;1.03;88.81
63903;BME280;50072;50.678;13.938;2023-01-28T01:55:40;100268.03;;;1.03;88.59
63903;BME280;50072;50.678;13.938;2023-01-28T01:58:14;100263.56;;;1.01;88.30
63903;BME280;50072;50.678;13.938;2023-01-28T02:00:45;100259.25;;;1.03;87.93
63903;BME280;50072;50.678;13.938;2023-01-28T02:04:06;100260.03;;;0.99;87.79
63903;BME280;50072;50.678;13.938;2023-01-28T02:06:39;100259.78;;;0.90;87.90
63903;BME280;50072;50.678;13.938;2023-01-28T02:09:24;100260.69;;;0.89;87.82
63903;BME280;50072;50.678;13.938;2023-01-28T02:14:44;100262.59;;;0.96;87.31
63903;BME280;50072;50.678;13.938;2023-01-28T02:17:38;100263.50;;;0.98;87.32
63903;BME280;50072;50.678;13.938;2023-01-28T02:31:52;100262.28;;;0.83;88.11
63903;BME280;50072;50.678;13.938;2023-01-28T02:37:16;100258.88;;;0.88;87.18
63903;BME280;50072;50.678;13.938;2023-01-28T02:40:02;100266.78;;;0.88;87.01
63903;BME280;50072;50.678;13.938;2023-01-28T02:42:40;100265.06;;;0.90;86.70
63903;BME280;50072;50.678;13.938;2023-01-28T02:45:18;100269.59;;;0.95;86.14
63903;BME280;50072;50.678;13.938;2023-01-28T02:47:45;100264.28;;;0.94;85.71
63903;BME280;50072;50.678;13.938;2023-01-28T02:53:44;100268.75;;;0.96;86.14
63903;BME280;50072;50.678;13.938;2023-01-28T02:59:40;100279.63;;;0.74;86.21
63903;BME280;50072;50.678;13.938;2023-01-28T03:05:15;100282.16;;;0.69;86.65
63903;BME280;50072;50.678;13.938;2023-01-28T03:07:45;100278.69;;;0.70;86.45
63903;BME280;50072;50.678;13.938;2023-01-28T03:10:17;100282.13;;;0.67;86.52
63903;BME280;50072;50.678;13.938;2023-01-28T03:12:48;100286.44;;;0.65;86.44
63903;BME280;50072;50.678;13.938;2023-01-28T03:15:45;100287.31;;;0.64;86.31
63903;BME280;50072;50.678;13.938;2023-01-28T03:18:48;100291.72;;;0.65;86.46
63903;BME280;50072;50.678;13.938;2023-01-28T03:21:49;100287.22;;;0.61;86.63
63903;BME280;50072;50.678;13.938;2023-01-28T03:24:44;100290.72;;;0.60;86.47
63903;BME280;50072;50.678;13.938;2023-01-28T03:27:48;100294.22;;;0.61;86.93
63903;BME280;50072;50.678;13.938;2023-01-28T03:30:42;100304.78;;;0.61;86.87
63903;BME280;50072;50.678;13.938;2023-01-28T03:33:39;100297.66;;;0.58;87.12
63903;BME280;50072;50.678;13.938;2023-01-28T03:36:39;100312.63;;;0.59;87.11
63903;BME280;50072;50.678;13.938;2023-01-28T03:39:38;100309.88;;;0.55;87.23
63903;BME280;50072;50.678;13.938;2023-01-28T03:42:12;100316.72;;;0.48;87.50
63903;BME280;50072;50.678;13.938;2023-01-28T03:44:38;100310.59;;;0.47;87.83
63903;BME280;50072;50.678;13.938;2023-01-28T03:47:30;100314.81;;;0.42;87.85
63903;BME280;50072;50.678;13.938;2023-01-28T03:50:09;100314.81;;;0.42;87.96
63903;BME280;50072;50.678;13.938;2023-01-28T03:52:41;100311.28;;;0.40;87.79
63903;BME280;50072;50.678;13.938;2023-01-28T03:55:09;100312.19;;;0.42;87.59
63903;BME280;50072;50.678;13.938;2023-01-28T03:57:39;100314.88;;;0.44;87.51
63903;BME280;50072;50.678;13.938;2023-01-28T04:00:11;100314.91;;;0.45;87.38
63903;BME280;50072;50.678;13.938;2023-01-28T04:02:38;100320.16;;;0.45;87.79
63903;BME280;50072;50.678;13.938;2023-01-28T04:05:11;100319.13;;;0.39;87.57
63903;BME280;50072;50.678;13.938;2023-01-28T04:10:39;100329.09;;;0.50;87.67
63903;BME280;50072;50.678;13.938;2023-01-28T04:13:08;100335.38;;;0.56;87.10
63903;BME280;50072;50.678;13.938;2023-01-28T04:15:34;100331.81;;;0.54;86.60
63903;BME280;50072;50.678;13.938;2023-01-28T04:18:09;100333.56;;;0.53;86.64
63903;BME280;50072;50.678;13.938;2023-01-28T04:20:38;100337.09;;;0.55;86.61
63903;BME280;50072;50.678;13.938;2023-01-28T04:23:08;100330.00;;;0.52;87.23
63903;BME280;50072;50.678;13.938;2023-01-28T04:25:40;100324.72;;;0.51;86.69
63903;BME280;50072;50.678;13.938;2023-01-28T04:28:08;100344.97;;;0.54;86.36
63903;BME280;50072;50.678;13.938;2023-01-28T04:30:34;100348.50;;;0.54;86.68
63903;BME280;50072;50.678;13.938;2023-01-28T04:33:09;100336.19;;;0.53;86.10
63903;BME280;50072;50.678;13.938;2023-01-28T04:35:40;100348.38;;;0.49;86.74
63903;BME280;50072;50.678;13.938;2023-01-28T04:38:08;100339.41;;;0.43;86.66
63903;BME280;50072;50.678;13.938;2023-01-28T04:40:38;100355.34;;;0.47;87.01
63903;BME280;50072;50.678;13.938;2023-01-28T04:43:10;100348.28;;;0.46;87.18
63903;BME280;50072;50.678;13.938;2023-01-28T04:45:38;100348.28;;;0.46;87.49
63903;BME280;50072;50.678;13.938;2023-01-28T04:48:10;100353.63;;;0.49;87.69
63903;BME280;50072;50.678;13.938;2023-01-28T04:50:38;100350.16;;;0.50;87.75
63903;BME280;50072;50.678;13.938;2023-01-28T04:53:10;100340.44;;;0.48;87.75
63903;BME280;50072;50.678;13.938;2023-01-28T04:55:39;100345.75;;;0.49;87.11
63903;BME280;50072;50.678;13.938;2023-01-28T04:58:08;100343.88;;;0.45;86.71
63903;BME280;50072;50.678;13.938;2023-01-28T05:00:41;100345.75;;;0.49;86.68
63903;BME280;50072;50.678;13.938;2023-01-28T05:03:08;100349.19;;;0.47;86.54
63903;BME280;50072;50.678;13.938;2023-01-28T05:05:38;100346.50;;;0.45;86.09
63903;BME280;50072;50.678;13.938;2023-01-28T05:08:10;100350.16;;;0.50;85.99
63903;BME280;50072;50.678;13.938;2023-01-28T05:10:38;100348.44;;;0.52;86.10
63903;BME280;50072;50.678;13.938;2023-01-28T05:13:05;100344.94;;;0.52;85.74
63903;BME280;50072;50.678;13.938;2023-01-28T05:15:38;100346.84;;;0.58;85.54
63903;BME280;50072;50.678;13.938;2023-01-28T05:18:08;100340.72;;;0.59;85.30
63903;BME280;50072;50.678;13.938;2023-01-28T05:20:38;100348.81;;;0.66;85.57
63903;BME280;50072;50.678;13.938;2023-01-28T05:23:08;100355.91;;;0.69;85.09
63903;BME280;50072;50.678;13.938;2023-01-28T05:25:38;100355.94;;;0.71;85.16
63903;BME280;50072;50.678;13.938;2023-01-28T05:28:11;100348.97;;;0.73;85.17
63903;BME280;50072;50.678;13.938;2023-01-28T05:30:37;100343.66;;;0.71;84.82
63903;BME280;50072;50.678;13.938;2023-01-28T05:33:09;100345.38;;;0.69;84.44
63903;BME280;50072;50.678;13.938;2023-01-28T05:35:38;100350.50;;;0.63;84.43
63903;BME280;50072;50.678;13.938;2023-01-28T05:38:10;100358.56;;;0.69;84.49
63903;BME280;50072;50.678;13.938;2023-01-28T05:40:38;100350.56;;;0.66;84.09
63903;BME280;50072;50.678;13.938;2023-01-28T05:43:07;100351.38;;;0.63;84.44
63903;BME280;50072;50.678;13.938;2023-01-28T05:45:39;100351.31;;;0.60;85.08
63903;BME280;50072;50.678;13.938;2023-01-28T05:48:10;100337.75;;;0.46;85.50
63903;BME280;50072;50.678;13.938;2023-01-28T05:50:38;100348.06;;;0.37;86.01
63903;BME280;50072;50.678;13.938;2023-01-28T05:53:08;100354.09;;;0.33;86.53
63903;BME280;50072;50.678;13.938;2023-01-28T05:55:38;100352.31;;;0.32;86.71
63903;BME280;50072;50.678;13.938;2023-01-28T05:58:10;100360.03;;;0.26;87.35
63903;BME280;50072;50.678;13.938;2023-01-28T06:00:38;100361.81;;;0.27;87.73
63903;BME280;50072;50.678;13.938;2023-01-28T06:03:11;100361.81;;;0.27;87.90
63903;BME280;50072;50.678;13.938;2023-01-28T06:05:38;100365.19;;;0.23;88.35
63903;BME280;50072;50.678;13.938;2023-01-28T06:08:08;100358.97;;;0.19;88.69
63903;BME280;50072;50.678;13.938;2023-01-28T06:10:38;100370.47;;;0.23;88.46
63903;BME280;50072;50.678;13.938;2023-01-28T06:13:10;100370.38;;;0.20;89.20
63903;BME280;50072;50.678;13.938;2023-01-28T06:15:38;100372.25;;;0.24;89.38
63903;BME280;50072;50.678;13.938;2023-01-28T06:18:08;100379.31;;;0.25;89.21
63903;BME280;50072;50.678;13.938;2023-01-28T06:20:35;100381.91;;;0.23;89.12
63903;BME280;50072;50.678;13.938;2023-01-28T06:23:02;100385.34;;;0.21;88.83
63903;BME280;50072;50.678;13.938;2023-01-28T06:25:30;100385.16;;;0.14;88.93
63903;BME280;50072;50.678;13.938;2023-01-28T06:28:09;100388.56;;;0.10;88.91
63903;BME280;50072;50.678;13.938;2023-01-28T06:30:34;100399.47;;;-0.06;88.71
63903;BME280;50072;50.678;13.938;2023-01-28T06:33:08;100402.81;;;-0.12;88.14
63903;BME280;50072;50.678;13.938;2023-01-28T06:35:40;100408.97;;;-0.11;88.37
63903;BME280;50072;50.678;13.938;2023-01-28T06:38:09;100414.84;;;-0.20;88.80
63903;BME280;50072;50.678;13.938;2023-01-28T06:40:41;100416.06;;;-0.38;88.72
63903;BME280;50072;50.678;13.938;2023-01-28T06:43:08;100423.91;;;-0.39;88.53
63903;BME280;50072;50.678;13.938;2023-01-28T06:45:38;100429.13;;;-0.41;87.50
63903;BME280;50072;50.678;13.938;2023-01-28T06:48:11;100430.00;;;-0.40;87.67
63903;BME280;50072;50.678;13.938;2023-01-28T06:50:37;100434.38;;;-0.41;87.08
63903;BME280;50072;50.678;13.938;2023-01-28T06:53:04;100443.00;;;-0.45;87.23
63903;BME280;50072;50.678;13.938;2023-01-28T06:55:32;100441.22;;;-0.46;86.52
63903;BME280;50072;50.678;13.938;2023-01-28T06:57:58;100450.66;;;-0.53;86.34
63903;BME280;50072;50.678;13.938;2023-01-28T07:00:24;100455.94;;;-0.53;86.23
63903;BME280;50072;50.678;13.938;2023-01-28T07:02:54;100470.75;;;-0.55;85.49
63903;BME280;50072;50.678;13.938;2023-01-28T07:05:20;100468.22;;;-0.52;85.99
63903;BME280;50072;50.678;13.938;2023-01-28T07:07:46;100470.78;;;-0.53;85.54
63903;BME280;50072;50.678;13.938;2023-01-28T07:10:13;100480.97;;;-0.64;85.94
63903;BME280;50072;50.678;13.938;2023-01-28T07:12:39;100483.41;;;-0.68;85.15
63903;BME280;50072;50.678;13.938;2023-01-28T07:15:06;100481.59;;;-0.71;84.92
63903;BME280;50072;50.678;13.938;2023-01-28T07:17:33;100477.19;;;-0.72;85.38
63903;BME280;50072;50.678;13.938;2023-01-28T07:19:58;100481.59;;;-0.71;85.46
63903;BME280;50072;50.678;13.938;2023-01-28T07:22:26;100491.06;;;-0.76;85.58
63903;BME280;50072;50.678;13.938;2023-01-28T07:24:52;100485.81;;;-0.76;84.73
63903;BME280;50072;50.678;13.938;2023-01-28T07:27:19;100491.78;;;-0.80;85.16
63903;BME280;50072;50.678;13.938;2023-01-28T07:29:44;100498.78;;;-0.81;85.05
63903;BME280;50072;50.678;13.938;2023-01-28T07:32:10;100497.00;;;-0.82;85.07
63903;BME280;50072;50.678;13.938;2023-01-28T07:34:36;100494.19;;;-0.88;85.08
63903;BME280;50072;50.678;13.938;2023-01-28T07:37:04;100499.59;;;-0.83;85.20
63903;BME280;50072;50.678;13.938;2023-01-28T07:39:32;100501.63;;;-0.75;84.85
63903;BME280;50072;50.678;13.938;2023-01-28T07:41:59;100500.84;;;-0.72;84.27
63903;BME280;50072;50.678;13.938;2023-01-28T07:44:26;100503.53;;;-0.71;84.28
63903;BME280;50072;50.678;13.938;2023-01-28T07:46:53;100508.78;;;-0.71;84.49
63903;BME280;50072;50.678;13.938;2023-01-28T07:49:19;100503.72;;;-0.64;83.68
63903;BME280;50072;50.678;13.938;2023-01-28T07:51:46;100505.50;;;-0.63;83.98
63903;BME280;50072;50.678;13.938;2023-01-28T07:54:16;100511.84;;;-0.58;83.71
63903;BME280;50072;50.678;13.938;2023-01-28T07:56:42;100514.56;;;-0.55;83.13
63903;BME280;50072;50.678;13.938;2023-01-28T07:59:08;100517.34;;;-0.50;82.65
63903;BME280;50072;50.678;13.938;2023-01-28T08:01:35;100518.06;;;-0.55;82.22
63903;BME280;50072;50.678;13.938;2023-01-28T08:04:00;100518.97;;;-0.54;81.77
63903;BME280;50072;50.678;13.938;2023-01-28T08:06:28;100529.69;;;-0.74;81.50
63903;BME280;50072;50.678;13.938;2023-01-28T08:08:54;100521.63;;;-0.54;82.05
63903;BME280;50072;50.678;13.938;2023-01-28T08:11:22;100529.66;;;-0.49;81.53
63903;BME280;50072;50.678;13.938;2023-01-28T08:13:49;100531.09;;;-0.32;80.90
63903;BME280;50072;50.678;13.938;2023-01-28T08:16:16;100529.41;;;-0.30;79.44
63903;BME280;50072;50.678;13.938;2023-01-28T08:18:42;100525.09;;;-0.28;79.18
63903;BME280;50072;50.678;13.938;2023-01-28T08:21:08;100539.16;;;-0.26;79.38
63903;BME280;50072;50.678;13.938;2023-01-28T08:23:34;100537.25;;;-0.04;79.54
63903;BME280;50072;50.678;13.938;2023-01-28T08:26:00;100531.38;;;0.05;78.39
63903;BME280;50072;50.678;13.938;2023-01-28T08:28:27;100530.66;;;0.09;77.75
63903;BME280;50072;50.678;13.938;2023-01-28T08:30:53;100543.25;;;0.19;77.50
63903;BME280;50072;50.678;13.938;2023-01-28T08:33:19;100537.94;;;0.17;75.93
63903;BME280;50072;50.678;13.938;2023-01-28T08:35:46;100549.28;;;0.16;75.62
63903;BME280;50072;50.678;13.938;2023-01-28T08:38:13;100550.03;;;0.12;75.22
63903;BME280;50072;50.678;13.938;2023-01-28T08:40:42;100543.84;;;0.10;74.63
63903;BME280;50072;50.678;13.938;2023-01-28T08:43:08;100551.19;;;-0.07;74.35
63903;BME280;50072;50.678;13.938;2023-01-28T08:45:35;100562.63;;;-0.06;74.08
63903;BME280;50072;50.678;13.938;2023-01-28T08:48:04;100557.72;;;-0.23;74.26
63903;BME280;50072;50.678;13.938;2023-01-28T08:50:34;100557.34;;;-0.33;74.17
63903;BME280;50072;50.678;13.938;2023-01-28T08:53:03;100564.09;;;-0.14;74.46
63903;BME280;50072;50.678;13.938;2023-01-28T08:55:30;100566.59;;;-0.19;73.33
63903;BME280;50072;50.678;13.938;2023-01-28T08:58:01;100566.97;;;-0.34;72.86
63903;BME280;50072;50.678;13.938;2023-01-28T09:00:27;100576.81;;;-0.28;73.32
63903;BME280;50072;50.678;13.938;2023-01-28T09:02:54;100583.19;;;-0.20;72.50
63903;BME280;50072;50.678;13.938;2023-01-28T09:05:21;100574.44;;;-0.21;72.20
63903;BME280;50072;50.678;13.938;2023-01-28T09:07:47;100577.44;;;-0.36;71.95
63903;BME280;50072;50.678;13.938;2023-01-28T09:10:14;100595.03;;;-0.59;71.65
63903;BME280;50072;50.678;13.938;2023-01-28T09:12:42;100601.78;;;-0.67;72.10
63903;BME280;50072;50.678;13.938;2023-01-28T09:15:09;100605.09;;;-0.73;72.88
63903;BME280;50072;50.678;13.938;2023-01-28T09:17:35;100606.88;;;-0.72;72.37
63903;BME280;50072;50.678;13.938;2023-01-28T09:20:02;100617.69;;;-0.64;72.85
63903;BME280;50072;50.678;13.938;2023-01-28T09:22:29;100615.06;;;-0.38;72.34
63903;BME280;50072;50.678;13.938;2023-01-28T09:24:55;100617.69;;;-0.12;71.30
63903;BME280;50072;50.678;13.938;2023-01-28T09:27:21;100612.41;;;-0.12;70.18
63903;BME280;50072;50.678;13.938;2023-01-28T09:29:49;100633.03;;;0.01;69.33
63903;BME280;50072;50.678;13.938;2023-01-28T09:32:18;100620.00;;;0.60;70.47
63903;BME280;50072;50.678;13.938;2023-01-28T09:34:44;100618.94;;;1.14;69.09
63903;BME280;50072;50.678;13.938;2023-01-28T09:37:11;100622.56;;;1.50;67.50
63903;BME280;50072;50.678;13.938;2023-01-28T09:39:37;100620.31;;;1.65;66.58
63903;BME280;50072;50.678;13.938;2023-01-28T09:47:38;100628.81;;;2.62;62.48
63903;BME280;50072;50.678;13.938;2023-01-28T09:50:13;100622.56;;;2.99;62.41
63903;BME280;50072;50.678;13.938;2023-01-28T09:52:41;100630.28;;;3.30;60.45
63903;BME280;50072;50.678;13.938;2023-01-28T09:55:24;100622.78;;;4.03;58.17
63903;BME280;50072;50.678;13.938;2023-01-28T09:57:54;100627.38;;;3.63;57.04
63903;BME280;50072;50.678;13.938;2023-01-28T10:09:07;100624.41;;;3.02;57.77
63903;BME280;50072;50.678;13.938;2023-01-28T10:19:56;100628.31;;;2.78;59.19
63903;BME280;50072;50.678;13.938;2023-01-28T10:22:38;100636.06;;;2.70;58.87
63903;BME280;50072;50.678;13.938;2023-01-28T10:25:18;100634.41;;;3.15;59.92
63903;BME280;50072;50.678;13.938;2023-01-28T10:27:46;100632.91;;;3.30;57.86
63903;BME280;50072;50.678;13.938;2023-01-28T10:30:39;100633.16;;;2.99;57.79
63903;BME280;50072;50.678;13.938;2023-01-28T10:33:35;100633.03;;;2.93;58.49
63903;BME280;50072;50.678;13.938;2023-01-28T10:36:08;100638.16;;;2.85;58.02
63903;BME280;50072;50.678;13.938;2023-01-28T10:38:40;100635.94;;;2.64;58.57
63903;BME280;50072;50.678;13.938;2023-01-28T10:41:09;100632.28;;;2.21;58.76
63903;BME280;50072;50.678;13.938;2023-01-28T10:43:40;100636.00;;;1.93;60.13
63903;BME280;50072;50.678;13.938;2023-01-28T10:46:29;100643.06;;;1.95;60.55
63903;BME280;50072;50.678;13.938;2023-01-28T10:51:41;100641.81;;;2.14;59.94
63903;BME280;50072;50.678;13.938;2023-01-28T10:57:15;100644.88;;;1.63;60.64
63903;BME280;50072;50.678;13.938;2023-01-28T10:59:55;100654.19;;;1.18;61.74
63903;BME280;50072;50.678;13.938;2023-01-28T11:02:38;100652.34;;;1.15;61.85
63903;BME280;50072;50.678;13.938;2023-01-28T11:05:15;100659.13;;;1.06;61.76
63903;BME280;50072;50.678;13.938;2023-01-28T11:07:50;100655.94;;;1.17;62.07
63903;BME280;50072;50.678;13.938;2023-01-28T11:10:34;100663.34;;;1.31;61.17
63903;BME280;50072;50.678;13.938;2023-01-28T11:13:29;100656.81;;;0.88;61.48
63903;BME280;50072;50.678;13.938;2023-01-28T11:16:16;100659.81;;;0.71;61.57
63903;BME280;50072;50.678;13.938;2023-01-28T11:21:36;100654.19;;;0.59;62.32
63903;BME280;50072;50.678;13.938;2023-01-28T11:24:16;100657.19;;;0.71;62.25
63903;BME280;50072;50.678;13.938;2023-01-28T11:26:48;100647.56;;;0.72;63.81
63903;BME280;50072;50.678;13.938;2023-01-28T11:29:38;100653.53;;;1.27;60.81
63903;BME280;50072;50.678;13.938;2023-01-28T11:32:18;100658.44;;;2.86;58.30
63903;BME280;50072;50.678;13.938;2023-01-28T11:34:50;100656.63;;;2.44;57.79
63903;BME280;50072;50.678;13.938;2023-01-28T11:37:34;100653.44;;;1.87;58.78
63903;BME280;50072;50.678;13.938;2023-01-28T11:40:17;100651.00;;;1.62;59.70
63903;BME280;50072;50.678;13.938;2023-01-28T11:42:55;100661.81;;;1.39;59.96
63903;BME280;50072;50.678;13.938;2023-01-28T11:45:46;100658.94;;;1.30;61.14
63903;BME280;50072;50.678;13.938;2023-01-28T11:54:26;100648.44;;;0.72;62.42
63903;BME280;50072;50.678;13.938;2023-01-28T12:06:21;100639.97;;;0.54;63.79
63903;BME280;50072;50.678;13.938;2023-01-28T12:09:24;100635.84;;;0.62;64.44
63903;BME280;50072;50.678;13.938;2023-01-28T12:12:14;100638.44;;;0.60;64.32
63903;BME280;50072;50.678;13.938;2023-01-28T12:20:36;100645.03;;;0.19;65.40
63903;BME280;50072;50.678;13.938;2023-01-28T12:43:44;100640.56;;;-0.36;63.91
63903;BME280;50072;50.678;13.938;2023-01-28T12:46:46;100639.50;;;-0.41;64.04
63903;BME280;50072;50.678;13.938;2023-01-28T12:52:14;100635.72;;;-0.49;64.84
63903;BME280;50072;50.678;13.938;2023-01-28T12:57:40;100629.81;;;-0.42;65.22
63903;BME280;50072;50.678;13.938;2023-01-28T13:00:39;100629.72;;;-0.45;64.30
63903;BME280;50072;50.678;13.938;2023-01-28T13:03:39;100625.03;;;-0.54;64.20
63903;BME280;50072;50.678;13.938;2023-01-28T13:06:13;100628.94;;;-0.42;64.34
63903;BME280;50072;50.678;13.938;2023-01-28T13:08:47;100631.63;;;-0.41;65.33
63903;BME280;50072;50.678;13.938;2023-01-28T13:11:16;100622.84;;;-0.41;65.58
63903;BME280;50072;50.678;13.938;2023-01-28T13:13:44;100630.41;;;-0.50;65.83
63903;BME280;50072;50.678;13.938;2023-01-28T13:16:11;100620.94;;;-0.45;65.87
63903;BME280;50072;50.678;13.938;2023-01-28T13:18:44;100624.94;;;-0.31;65.73
63903;BME280;50072;50.678;13.938;2023-01-28T13:24:05;100617.88;;;-0.32;65.38
63903;BME280;50072;50.678;13.938;2023-01-28T13:29:35;100631.53;;;-0.18;64.50
63903;BME280;50072;50.678;13.938;2023-01-28T13:32:34;100625.25;;;-0.22;64.61
63903;BME280;50072;50.678;13.938;2023-01-28T13:35:27;100635.88;;;-0.19;63.96
63903;BME280;50072;50.678;13.938;2023-01-28T13:37:55;100632.31;;;-0.21;64.99
63903;BME280;50072;50.678;13.938;2023-01-28T13:40:39;100634.56;;;-0.31;65.40
63903;BME280;50072;50.678;13.938;2023-01-28T13:43:34;100626.16;;;-0.47;65.38
63903;BME280;50072;50.678;13.938;2023-01-28T13:46:10;100637.03;;;-0.36;66.26
63903;BME280;50072;50.678;13.938;2023-01-28T13:48:51;100634.72;;;-0.53;65.65
63903;BME280;50072;50.678;13.938;2023-01-28T13:51:38;100637.13;;;-0.59;64.22
63903;BME280;50072;50.678;13.938;2023-01-28T13:54:20;100644.38;;;-0.52;64.67
63903;BME280;50072;50.678;13.938;2023-01-28T13:57:18;100648.34;;;-0.63;65.01
63903;BME280;50072;50.678;13.938;2023-01-28T14:03:27;100657.88;;;-0.66;64.76
63903;BME280;50072;50.678;13.938;2023-01-28T14:17:56;100663.00;;;-0.71;65.07
63903;BME280;50072;50.678;13.938;2023-01-28T14:20:43;100665.38;;;-0.77;65.60
63903;BME280;50072;50.678;13.938;2023-01-28T14:23:29;100669.47;;;-0.85;65.33
63903;BME280;50072;50.678;13.938;2023-01-28T14:28:42;100666.69;;;-0.89;67.60
63903;BME280;50072;50.678;13.938;2023-01-28T14:31:16;100672.09;;;-0.85;66.46
63903;BME280;50072;50.678;13.938;2023-01-28T14:33:42;100677.25;;;-0.87;66.23
63903;BME280;50072;50.678;13.938;2023-01-28T14:36:10;100679.97;;;-0.85;65.87
63903;BME280;50072;50.678;13.938;2023-01-28T14:38:47;100672.75;;;-0.91;66.41
63903;BME280;50072;50.678;13.938;2023-01-28T14:41:29;100673.44;;;-0.97;66.33
63903;BME280;50072;50.678;13.938;2023-01-28T14:43:55;100677.81;;;-0.96;66.56
63903;BME280;50072;50.678;13.938;2023-01-28T14:46:42;100683.78;;;-1.00;66.72
63903;BME280;50072;50.678;13.938;2023-01-28T14:55:44;100673.28;;;-1.00;67.83
63903;BME280;50072;50.678;13.938;2023-01-28T14:58:40;100679.63;;;-0.95;67.59
63903;BME280;50072;50.678;13.938;2023-01-28T15:01:30;100678.78;;;-0.94;67.10
63903;BME280;50072;50.678;13.938;2023-01-28T15:04:30;100677.00;;;-0.95;67.16
63903;BME280;50072;50.678;13.938;2023-01-28T15:10:48;100688.16;;;-1.00;66.53
63903;BME280;50072;50.678;13.938;2023-01-28T15:15:46;100689.66;;;-1.07;66.13
63903;BME280;50072;50.678;13.938;2023-01-28T15:18:40;100678.97;;;-1.12;67.22
63903;BME280;50072;50.678;13.938;2023-01-28T15:21:09;100688.72;;;-1.09;67.22
63903;BME280;50072;50.678;13.938;2023-01-28T15:23:47;100683.56;;;-1.06;66.56
63903;BME280;50072;50.678;13.938;2023-01-28T15:26:22;100693.19;;;-1.07;66.89
63903;BME280;50072;50.678;13.938;2023-01-28T15:28:51;100684.34;;;-1.09;66.43
63903;BME280;50072;50.678;13.938;2023-01-28T15:34:20;100696.53;;;-1.11;67.08
63903;BME280;50072;50.678;13.938;2023-01-28T15:37:08;100704.09;;;-1.18;66.89
63903;BME280;50072;50.678;13.938;2023-01-28T15:39:38;100694.41;;;-1.21;67.26
63903;BME280;50072;50.678;13.938;2023-01-28T15:42:13;100697.72;;;-1.25;67.15
63903;BME280;50072;50.678;13.938;2023-01-28T15:44:49;100696.00;;;-1.25;67.33
63903;BME280;50072;50.678;13.938;2023-01-28T15:47:20;100693.25;;;-1.28;68.02
63903;BME280;50072;50.678;13.938;2023-01-28T15:49:51;100688.94;;;-1.26;67.84
63903;BME280;50072;50.678;13.938;2023-01-28T15:52:40;100695.16;;;-1.24;67.64
63903;BME280;50072;50.678;13.938;2023-01-28T15:58:25;100705.34;;;-1.31;67.69